ESSB/BMA METAR and TAF weather

Enter ICAO airport designator
Station Type Date Time Source
ESSB METAR 2020/01/20 12:50 UTC NOAA

ESSB 201250Z 24012KT CAVOK 05/02 Q1025 R12/19//83


Station Type Date Time Source
ESSB Decoded METAR 2020/01/20 12:50 UTC NOAA

Stockholm / Bromma, Sweden (ESSB) 59-21N 017-57E 14M
Jan 20, 2020 - 07:50 AM EST / 2020.01.20 1250 UTC
Wind: from the WSW (240 degrees) at 14 MPH (12 KT):0
Visibility: greater than 7 mile(s):0
Temperature: 41 F (5 C)
Dew Point: 35 F (2 C)
Relative Humidity: 80%
Pressure (altimeter): 30.27 in. Hg (1025 hPa)
ob: ESSB 201250Z 24012KT CAVOK 05/02 Q1025 R12/19//83
cycle: 13

Station Type Date Time Source
ESSB TAF 2017/03/27 06:35 UTC NOAA

TAF ESSB 270530Z 2706/2724 27008KT CAVOK
BECMG 2710/2713 29015G25KT

Example: see airport list